Rock Hill, SC (29730)

9:03 PM EDT on July 30, 2015 (GMT -0400)
Winthrop University | | Change Station
CLOSE
Current Station
Personal Weather Station
Location: Rock Hill, SC
Elevation: 665 ft
Nearby Weather Stations

Elev 665 ft 34.94 °N, 81.03 °W | Updated 12 seconds ago

Partly Cloudy
Partly Cloudy
87.4 °F
Feels Like 94 °F
N
0.0
Wind Variable Wind from South
Gusts 0.0 mph

Today
High -- | Low -- °F
--% Chance of Precip.
Yesterday
High -- | Low -- °F
Precip. -- in
6:31 AM 8:28 PM
Full, 100% visible
Pressure 29.86 in
Visibility 10.0 miles
Clouds Scattered Clouds 7000 ft
Scattered Clouds 8500 ft
Heat Index 94 °F
Dew Point 72 °F
Humidity 61%
Rainfall 0.00 in
Snow Depth Not available.
UV 0 out of 12
Pollen 4.40 out of 12
Air Quality Not available.
Flu Activity Not available.
METAR KUZA 310054Z AUTO 22004KT 10SM SCT070 SCT085 28/24 A2990 RMK AO2 SLP110 T02830239

More Conditions Fewer Conditions

Pressure 29.86 in
Visibility 10.0 miles
Clouds Scattered Clouds 7000 ft
Scattered Clouds 8500 ft
Heat Index 94 °F
Dew Point 72 °F
Humidity 61%
Rainfall 0.00 in
Snow Depth Not available.
UV 0 out of 12
Pollen 4.40 out of 12
Air Quality Not available.
Flu Activity Not available.
METAR KUZA 310054Z AUTO 22004KT 10SM SCT070 SCT085 28/24 A2990 RMK AO2 SLP110 T02830239

More Conditions Fewer Conditions

10-Day Weather Forecast

×

Almanac

Astronomy

Jul. 30, 2015 Rise Set
Actual Time
Civil Twilight
Nautical Twilight
Astronomical Twilight
Moon
Length of Visible Light
Length of Day
Tomorrow will be .
, % of the Moon is Illuminated

Today's Extremes

State Highs State Lows

Community

WunderPhotos

Upload Photos

1,842,555 photos uploaded!

WunderBlogs® & News

Nearby

Air Quality

  Air Quality AQ Index Pollutant
Not available.

Snow Depth

Station Depth Elevation

Earthquake Activity

City Distance Mag. Time & Date
Minimum magnitude displayed is 2.5.

Coastal Water Temperatures

Place Temperature

Stations

Nearby Weather Stations

Station Location Temp. Windchill Dew Point Humidity Wind Precip. Elev Updated Type